sensor_id;sensor_type;location;lat;lon;timestamp;P1;durP1;ratioP1;P2;durP2;ratioP2
65375;SDS011;51976;47.332;9.404;2022-09-09T00:02:03;0.35;;;0.20;;
65375;SDS011;51976;47.332;9.404;2022-09-09T00:04:37;0.25;;;0.22;;
65375;SDS011;51976;47.332;9.404;2022-09-09T00:07:06;0.52;;;0.30;;
65375;SDS011;51976;47.332;9.404;2022-09-09T00:10:03;0.28;;;0.20;;
65375;SDS011;51976;47.332;9.404;2022-09-09T00:13:16;0.70;;;0.28;;
65375;SDS011;51976;47.332;9.404;2022-09-09T00:16:08;0.63;;;0.25;;
65375;SDS011;51976;47.332;9.404;2022-09-09T00:19:07;0.63;;;0.20;;
65375;SDS011;51976;47.332;9.404;2022-09-09T00:21:48;0.82;;;0.20;;
65375;SDS011;51976;47.332;9.404;2022-09-09T00:24:28;0.75;;;0.20;;
65375;SDS011;51976;47.332;9.404;2022-09-09T00:27:02;2.25;;;0.32;;
65375;SDS011;51976;47.332;9.404;2022-09-09T00:29:42;0.20;;;0.10;;
65375;SDS011;51976;47.332;9.404;2022-09-09T00:32:16;0.45;;;0.20;;
65375;SDS011;51976;47.332;9.404;2022-09-09T00:34:47;0.32;;;0.20;;
65375;SDS011;51976;47.332;9.404;2022-09-09T00:37:19;0.28;;;0.15;;
65375;SDS011;51976;47.332;9.404;2022-09-09T00:39:47;0.88;;;0.20;;
65375;SDS011;51976;47.332;9.404;2022-09-09T00:42:18;0.28;;;0.17;;
65375;SDS011;51976;47.332;9.404;2022-09-09T00:44:53;0.73;;;0.30;;
65375;SDS011;51976;47.332;9.404;2022-09-09T00:47:45;0.40;;;0.30;;
65375;SDS011;51976;47.332;9.404;2022-09-09T00:50:17;0.55;;;0.25;;
65375;SDS011;51976;47.332;9.404;2022-09-09T00:53:18;0.52;;;0.20;;
65375;SDS011;51976;47.332;9.404;2022-09-09T00:56:01;0.55;;;0.30;;
65375;SDS011;51976;47.332;9.404;2022-09-09T00:58:47;0.50;;;0.40;;
65375;SDS011;51976;47.332;9.404;2022-09-09T01:01:23;2.08;;;0.60;;
65375;SDS011;51976;47.332;9.404;2022-09-09T01:03:50;3.33;;;1.55;;
65375;SDS011;51976;47.332;9.404;2022-09-09T01:06:30;3.42;;;1.52;;
65375;SDS011;51976;47.332;9.404;2022-09-09T01:09:02;2.70;;;1.48;;
65375;SDS011;51976;47.332;9.404;2022-09-09T01:11:42;1.67;;;0.95;;
65375;SDS011;51976;47.332;9.404;2022-09-09T01:17:15;0.95;;;0.50;;
65375;SDS011;51976;47.332;9.404;2022-09-09T01:20:04;1.33;;;0.70;;
65375;SDS011;51976;47.332;9.404;2022-09-09T01:22:44;0.98;;;0.60;;
65375;SDS011;51976;47.332;9.404;2022-09-09T01:25:20;0.93;;;0.47;;
65375;SDS011;51976;47.332;9.404;2022-09-09T01:27:53;1.30;;;0.63;;
65375;SDS011;51976;47.332;9.404;2022-09-09T01:30:23;1.40;;;0.50;;
65375;SDS011;51976;47.332;9.404;2022-09-09T01:32:50;0.90;;;0.50;;
65375;SDS011;51976;47.332;9.404;2022-09-09T01:35:27;1.05;;;0.45;;
65375;SDS011;51976;47.332;9.404;2022-09-09T01:38:15;0.80;;;0.55;;
65375;SDS011;51976;47.332;9.404;2022-09-09T01:40:42;1.35;;;0.40;;
65375;SDS011;51976;47.332;9.404;2022-09-09T01:43:08;1.50;;;0.60;;
65375;SDS011;51976;47.332;9.404;2022-09-09T01:45:36;1.05;;;0.40;;
65375;SDS011;51976;47.332;9.404;2022-09-09T01:48:03;0.68;;;0.30;;
65375;SDS011;51976;47.332;9.404;2022-09-09T01:50:29;0.75;;;0.40;;
65375;SDS011;51976;47.332;9.404;2022-09-09T01:52:56;0.95;;;0.45;;
65375;SDS011;51976;47.332;9.404;2022-09-09T01:55:30;0.70;;;0.40;;
65375;SDS011;51976;47.332;9.404;2022-09-09T01:58:06;2.35;;;0.40;;
65375;SDS011;51976;47.332;9.404;2022-09-09T02:03:56;0.85;;;0.40;;
65375;SDS011;51976;47.332;9.404;2022-09-09T02:06:36;0.60;;;0.30;;
65375;SDS011;51976;47.332;9.404;2022-09-09T02:09:05;0.88;;;0.30;;
65375;SDS011;51976;47.332;9.404;2022-09-09T02:11:32;0.90;;;0.40;;
65375;SDS011;51976;47.332;9.404;2022-09-09T02:14:12;1.40;;;0.50;;
65375;SDS011;51976;47.332;9.404;2022-09-09T02:16:51;1.00;;;0.38;;
65375;SDS011;51976;47.332;9.404;2022-09-09T02:19:28;0.90;;;0.43;;
65375;SDS011;51976;47.332;9.404;2022-09-09T02:21:58;0.65;;;0.45;;
65375;SDS011;51976;47.332;9.404;2022-09-09T02:24:26;1.65;;;0.40;;
65375;SDS011;51976;47.332;9.404;2022-09-09T02:26:54;0.60;;;0.30;;
65375;SDS011;51976;47.332;9.404;2022-09-09T02:29:24;1.13;;;0.40;;
65375;SDS011;51976;47.332;9.404;2022-09-09T02:31:52;0.80;;;0.40;;
65375;SDS011;51976;47.332;9.404;2022-09-09T02:34:23;1.05;;;0.40;;
65375;SDS011;51976;47.332;9.404;2022-09-09T02:36:50;1.08;;;0.40;;
65375;SDS011;51976;47.332;9.404;2022-09-09T02:39:18;1.65;;;0.43;;
65375;SDS011;51976;47.332;9.404;2022-09-09T02:41:44;0.77;;;0.30;;
65375;SDS011;51976;47.332;9.404;2022-09-09T02:44:10;0.95;;;0.32;;
65375;SDS011;51976;47.332;9.404;2022-09-09T02:49:43;0.77;;;0.43;;
65375;SDS011;51976;47.332;9.404;2022-09-09T02:52:30;0.90;;;0.38;;
65375;SDS011;51976;47.332;9.404;2022-09-09T02:55:15;1.88;;;0.50;;
65375;SDS011;51976;47.332;9.404;2022-09-09T02:57:46;0.90;;;0.50;;
65375;SDS011;51976;47.332;9.404;2022-09-09T03:00:13;1.00;;;0.50;;
65375;SDS011;51976;47.332;9.404;2022-09-09T03:02:38;0.77;;;0.40;;
65375;SDS011;51976;47.332;9.404;2022-09-09T03:05:04;0.95;;;0.40;;
65375;SDS011;51976;47.332;9.404;2022-09-09T03:07:31;0.52;;;0.38;;
65375;SDS011;51976;47.332;9.404;2022-09-09T03:09:56;0.73;;;0.40;;
65375;SDS011;51976;47.332;9.404;2022-09-09T03:12:23;0.88;;;0.45;;
65375;SDS011;51976;47.332;9.404;2022-09-09T03:14:48;0.60;;;0.20;;
65375;SDS011;51976;47.332;9.404;2022-09-09T03:17:14;1.00;;;0.38;;
65375;SDS011;51976;47.332;9.404;2022-09-09T03:19:39;0.90;;;0.50;;
65375;SDS011;51976;47.332;9.404;2022-09-09T03:22:05;0.77;;;0.30;;
65375;SDS011;51976;47.332;9.404;2022-09-09T03:24:30;0.80;;;0.40;;
65375;SDS011;51976;47.332;9.404;2022-09-09T03:26:55;0.80;;;0.40;;
65375;SDS011;51976;47.332;9.404;2022-09-09T03:29:21;0.88;;;0.32;;
65375;SDS011;51976;47.332;9.404;2022-09-09T03:31:46;1.67;;;0.50;;
65375;SDS011;51976;47.332;9.404;2022-09-09T03:34:12;0.57;;;0.30;;
65375;SDS011;51976;47.332;9.404;2022-09-09T03:36:38;1.25;;;0.40;;
65375;SDS011;51976;47.332;9.404;2022-09-09T03:39:04;0.68;;;0.30;;
65375;SDS011;51976;47.332;9.404;2022-09-09T03:41:30;1.23;;;0.40;;
65375;SDS011;51976;47.332;9.404;2022-09-09T03:43:55;0.90;;;0.40;;
65375;SDS011;51976;47.332;9.404;2022-09-09T03:46:21;1.27;;;0.30;;
65375;SDS011;51976;47.332;9.404;2022-09-09T03:48:48;0.60;;;0.30;;
65375;SDS011;51976;47.332;9.404;2022-09-09T03:51:13;0.55;;;0.40;;
65375;SDS011;51976;47.332;9.404;2022-09-09T03:53:41;0.63;;;0.30;;
65375;SDS011;51976;47.332;9.404;2022-09-09T03:56:06;0.98;;;0.40;;
65375;SDS011;51976;47.332;9.404;2022-09-09T03:58:33;1.25;;;0.30;;
65375;SDS011;51976;47.332;9.404;2022-09-09T04:01:00;0.43;;;0.25;;
65375;SDS011;51976;47.332;9.404;2022-09-09T04:03:30;0.98;;;0.30;;
65375;SDS011;51976;47.332;9.404;2022-09-09T04:05:56;1.75;;;0.30;;
65375;SDS011;51976;47.332;9.404;2022-09-09T04:08:24;1.20;;;0.55;;
65375;SDS011;51976;47.332;9.404;2022-09-09T04:10:53;0.85;;;0.40;;
65375;SDS011;51976;47.332;9.404;2022-09-09T04:13:23;0.82;;;0.40;;
65375;SDS011;51976;47.332;9.404;2022-09-09T04:15:52;0.40;;;0.20;;
65375;SDS011;51976;47.332;9.404;2022-09-09T04:18:22;0.82;;;0.40;;
65375;SDS011;51976;47.332;9.404;2022-09-09T04:20:49;1.33;;;0.43;;
65375;SDS011;51976;47.332;9.404;2022-09-09T04:23:16;1.10;;;0.40;;
65375;SDS011;51976;47.332;9.404;2022-09-09T04:25:50;0.90;;;0.40;;
65375;SDS011;51976;47.332;9.404;2022-09-09T04:28:17;0.70;;;0.28;;
65375;SDS011;51976;47.332;9.404;2022-09-09T04:30:44;0.70;;;0.30;;
65375;SDS011;51976;47.332;9.404;2022-09-09T04:33:10;1.42;;;0.50;;
65375;SDS011;51976;47.332;9.404;2022-09-09T04:35:37;0.55;;;0.28;;
65375;SDS011;51976;47.332;9.404;2022-09-09T04:38:03;0.45;;;0.20;;
65375;SDS011;51976;47.332;9.404;2022-09-09T04:40:28;0.93;;;0.40;;
65375;SDS011;51976;47.332;9.404;2022-09-09T04:42:55;0.57;;;0.30;;
65375;SDS011;51976;47.332;9.404;2022-09-09T04:45:22;0.90;;;0.40;;
65375;SDS011;51976;47.332;9.404;2022-09-09T04:47:48;0.80;;;0.30;;
65375;SDS011;51976;47.332;9.404;2022-09-09T04:50:14;0.70;;;0.40;;
65375;SDS011;51976;47.332;9.404;2022-09-09T04:52:39;0.93;;;0.43;;
65375;SDS011;51976;47.332;9.404;2022-09-09T04:55:06;1.80;;;0.50;;
65375;SDS011;51976;47.332;9.404;2022-09-09T04:57:32;0.60;;;0.30;;
65375;SDS011;51976;47.332;9.404;2022-09-09T04:59:58;0.95;;;0.50;;
65375;SDS011;51976;47.332;9.404;2022-09-09T05:02:25;1.17;;;0.50;;
65375;SDS011;51976;47.332;9.404;2022-09-09T05:04:51;0.52;;;0.35;;
65375;SDS011;51976;47.332;9.404;2022-09-09T05:07:16;0.85;;;0.47;;
65375;SDS011;51976;47.332;9.404;2022-09-09T05:09:41;1.17;;;0.60;;
65375;SDS011;51976;47.332;9.404;2022-09-09T05:12:07;0.82;;;0.40;;
65375;SDS011;51976;47.332;9.404;2022-09-09T05:14:33;0.68;;;0.30;;
65375;SDS011;51976;47.332;9.404;2022-09-09T05:17:00;0.82;;;0.40;;
65375;SDS011;51976;47.332;9.404;2022-09-09T05:19:26;0.70;;;0.40;;
65375;SDS011;51976;47.332;9.404;2022-09-09T05:21:51;0.90;;;0.40;;
65375;SDS011;51976;47.332;9.404;2022-09-09T05:24:16;2.03;;;0.40;;
65375;SDS011;51976;47.332;9.404;2022-09-09T05:26:42;0.80;;;0.50;;
65375;SDS011;51976;47.332;9.404;2022-09-09T05:29:08;0.70;;;0.40;;
65375;SDS011;51976;47.332;9.404;2022-09-09T05:31:33;0.90;;;0.47;;
65375;SDS011;51976;47.332;9.404;2022-09-09T05:33:59;0.88;;;0.30;;
65375;SDS011;51976;47.332;9.404;2022-09-09T05:36:25;1.40;;;0.43;;
65375;SDS011;51976;47.332;9.404;2022-09-09T05:38:50;0.63;;;0.32;;
65375;SDS011;51976;47.332;9.404;2022-09-09T05:41:18;0.90;;;0.40;;
65375;SDS011;51976;47.332;9.404;2022-09-09T05:43:45;2.30;;;0.40;;
65375;SDS011;51976;47.332;9.404;2022-09-09T05:46:15;1.58;;;0.50;;
65375;SDS011;51976;47.332;9.404;2022-09-09T05:48:47;0.75;;;0.32;;
65375;SDS011;51976;47.332;9.404;2022-09-09T05:51:16;0.70;;;0.40;;
65375;SDS011;51976;47.332;9.404;2022-09-09T05:53:43;0.52;;;0.20;;
65375;SDS011;51976;47.332;9.404;2022-09-09T05:56:13;0.98;;;0.30;;
65375;SDS011;51976;47.332;9.404;2022-09-09T05:58:41;0.60;;;0.40;;
65375;SDS011;51976;47.332;9.404;2022-09-09T06:01:13;1.02;;;0.35;;
65375;SDS011;51976;47.332;9.404;2022-09-09T06:03:41;0.80;;;0.40;;
65375;SDS011;51976;47.332;9.404;2022-09-09T06:06:07;0.82;;;0.40;;
65375;SDS011;51976;47.332;9.404;2022-09-09T06:08:35;0.30;;;0.20;;
65375;SDS011;51976;47.332;9.404;2022-09-09T06:11:04;1.15;;;0.40;;
65375;SDS011;51976;47.332;9.404;2022-09-09T06:13:30;1.05;;;0.30;;
65375;SDS011;51976;47.332;9.404;2022-09-09T06:15:57;0.93;;;0.40;;
65375;SDS011;51976;47.332;9.404;2022-09-09T06:18:23;0.63;;;0.30;;
65375;SDS011;51976;47.332;9.404;2022-09-09T06:21:01;0.75;;;0.40;;
65375;SDS011;51976;47.332;9.404;2022-09-09T06:23:31;0.47;;;0.17;;
65375;SDS011;51976;47.332;9.404;2022-09-09T06:26:06;0.82;;;0.30;;
65375;SDS011;51976;47.332;9.404;2022-09-09T06:28:35;0.88;;;0.40;;
65375;SDS011;51976;47.332;9.404;2022-09-09T06:31:02;1.33;;;0.40;;
65375;SDS011;51976;47.332;9.404;2022-09-09T06:33:36;0.30;;;0.20;;
65375;SDS011;51976;47.332;9.404;2022-09-09T06:36:06;0.60;;;0.40;;
65375;SDS011;51976;47.332;9.404;2022-09-09T06:38:35;0.30;;;0.13;;
65375;SDS011;51976;47.332;9.404;2022-09-09T06:41:01;0.93;;;0.50;;
65375;SDS011;51976;47.332;9.404;2022-09-09T06:43:26;1.15;;;0.30;;
65375;SDS011;51976;47.332;9.404;2022-09-09T06:45:53;0.70;;;0.40;;
65375;SDS011;51976;47.332;9.404;2022-09-09T06:48:20;1.13;;;0.60;;
65375;SDS011;51976;47.332;9.404;2022-09-09T06:50:45;1.40;;;0.50;;
65375;SDS011;51976;47.332;9.404;2022-09-09T06:53:11;0.93;;;0.43;;
65375;SDS011;51976;47.332;9.404;2022-09-09T06:55:36;0.70;;;0.50;;
65375;SDS011;51976;47.332;9.404;2022-09-09T06:58:02;0.50;;;0.28;;
65375;SDS011;51976;47.332;9.404;2022-09-09T07:00:33;0.60;;;0.30;;
65375;SDS011;51976;47.332;9.404;2022-09-09T07:02:58;0.45;;;0.30;;
65375;SDS011;51976;47.332;9.404;2022-09-09T07:05:24;0.82;;;0.30;;
65375;SDS011;51976;47.332;9.404;2022-09-09T07:07:51;0.60;;;0.30;;
65375;SDS011;51976;47.332;9.404;2022-09-09T07:10:17;0.77;;;0.30;;
65375;SDS011;51976;47.332;9.404;2022-09-09T07:12:43;0.77;;;0.38;;
65375;SDS011;51976;47.332;9.404;2022-09-09T07:15:08;1.00;;;0.45;;
65375;SDS011;51976;47.332;9.404;2022-09-09T07:17:34;0.90;;;0.30;;
65375;SDS011;51976;47.332;9.404;2022-09-09T07:20:00;0.68;;;0.38;;
65375;SDS011;51976;47.332;9.404;2022-09-09T07:22:27;1.40;;;0.47;;
65375;SDS011;51976;47.332;9.404;2022-09-09T07:24:53;0.80;;;0.40;;
65375;SDS011;51976;47.332;9.404;2022-09-09T07:27:18;1.30;;;0.47;;
65375;SDS011;51976;47.332;9.404;2022-09-09T07:29:43;0.50;;;0.20;;
65375;SDS011;51976;47.332;9.404;2022-09-09T07:32:10;0.60;;;0.40;;
65375;SDS011;51976;47.332;9.404;2022-09-09T07:34:36;0.63;;;0.30;;
65375;SDS011;51976;47.332;9.404;2022-09-09T07:37:01;1.30;;;0.30;;
65375;SDS011;51976;47.332;9.404;2022-09-09T07:39:27;0.40;;;0.30;;
65375;SDS011;51976;47.332;9.404;2022-09-09T07:41:53;0.88;;;0.30;;
65375;SDS011;51976;47.332;9.404;2022-09-09T07:44:23;0.65;;;0.30;;
65375;SDS011;51976;47.332;9.404;2022-09-09T07:46:52;0.52;;;0.15;;
65375;SDS011;51976;47.332;9.404;2022-09-09T07:49:17;0.40;;;0.25;;
65375;SDS011;51976;47.332;9.404;2022-09-09T07:51:44;0.45;;;0.30;;
65375;SDS011;51976;47.332;9.404;2022-09-09T07:54:11;0.80;;;0.40;;
65375;SDS011;51976;47.332;9.404;2022-09-09T07:56:38;1.23;;;0.30;;
65375;SDS011;51976;47.332;9.404;2022-09-09T07:59:05;2.60;;;0.40;;
65375;SDS011;51976;47.332;9.404;2022-09-09T08:01:34;0.70;;;0.30;;
65375;SDS011;51976;47.332;9.404;2022-09-09T08:04:05;0.95;;;0.30;;
65375;SDS011;51976;47.332;9.404;2022-09-09T08:06:36;1.13;;;0.40;;
65375;SDS011;51976;47.332;9.404;2022-09-09T08:09:04;2.47;;;0.30;;
65375;SDS011;51976;47.332;9.404;2022-09-09T08:11:30;1.42;;;0.47;;
65375;SDS011;51976;47.332;9.404;2022-09-09T08:13:58;0.50;;;0.20;;
65375;SDS011;51976;47.332;9.404;2022-09-09T08:16:25;0.50;;;0.17;;
65375;SDS011;51976;47.332;9.404;2022-09-09T08:18:52;0.30;;;0.20;;
65375;SDS011;51976;47.332;9.404;2022-09-09T08:21:20;0.35;;;0.20;;
65375;SDS011;51976;47.332;9.404;2022-09-09T08:23:46;0.55;;;0.35;;
65375;SDS011;51976;47.332;9.404;2022-09-09T08:26:16;1.83;;;0.30;;
65375;SDS011;51976;47.332;9.404;2022-09-09T08:28:46;0.80;;;0.20;;
65375;SDS011;51976;47.332;9.404;2022-09-09T08:31:13;0.70;;;0.30;;
65375;SDS011;51976;47.332;9.404;2022-09-09T08:33:41;0.68;;;0.30;;
65375;SDS011;51976;47.332;9.404;2022-09-09T08:36:11;0.98;;;0.40;;
65375;SDS011;51976;47.332;9.404;2022-09-09T08:38:40;0.90;;;0.25;;
65375;SDS011;51976;47.332;9.404;2022-09-09T08:44:14;1.73;;;0.40;;
65375;SDS011;51976;47.332;9.404;2022-09-09T08:47:09;1.50;;;0.32;;
65375;SDS011;51976;47.332;9.404;2022-09-09T08:49:59;1.00;;;0.40;;
65375;SDS011;51976;47.332;9.404;2022-09-09T08:52:49;2.63;;;0.32;;
65375;SDS011;51976;47.332;9.404;2022-09-09T08:55:48;1.02;;;0.45;;
65375;SDS011;51976;47.332;9.404;2022-09-09T08:58:26;4.47;;;0.70;;
65375;SDS011;51976;47.332;9.404;2022-09-09T09:01:00;5.47;;;0.73;;
65375;SDS011;51976;47.332;9.404;2022-09-09T09:04:00;4.68;;;0.60;;
65375;SDS011;51976;47.332;9.404;2022-09-09T09:06:54;5.97;;;0.55;;
65375;SDS011;51976;47.332;9.404;2022-09-09T09:09:42;1.52;;;0.50;;
65375;SDS011;51976;47.332;9.404;2022-09-09T09:12:24;10.35;;;0.85;;
65375;SDS011;51976;47.332;9.404;2022-09-09T09:14:52;2.97;;;0.65;;
65375;SDS011;51976;47.332;9.404;2022-09-09T09:17:18;4.28;;;0.73;;
65375;SDS011;51976;47.332;9.404;2022-09-09T09:19:46;5.30;;;0.90;;
65375;SDS011;51976;47.332;9.404;2022-09-09T09:22:19;4.40;;;0.98;;
65375;SDS011;51976;47.332;9.404;2022-09-09T09:24:57;2.72;;;0.70;;
65375;SDS011;51976;47.332;9.404;2022-09-09T09:27:49;2.85;;;0.80;;
65375;SDS011;51976;47.332;9.404;2022-09-09T09:30:44;2.72;;;0.57;;
65375;SDS011;51976;47.332;9.404;2022-09-09T09:33:34;2.15;;;0.45;;
65375;SDS011;51976;47.332;9.404;2022-09-09T09:36:06;4.47;;;0.77;;
65375;SDS011;51976;47.332;9.404;2022-09-09T09:38:33;4.65;;;0.70;;
65375;SDS011;51976;47.332;9.404;2022-09-09T09:41:00;2.83;;;0.65;;
65375;SDS011;51976;47.332;9.404;2022-09-09T09:43:28;1.38;;;0.52;;
65375;SDS011;51976;47.332;9.404;2022-09-09T09:45:58;2.72;;;0.43;;
65375;SDS011;51976;47.332;9.404;2022-09-09T09:48:24;5.47;;;0.70;;
65375;SDS011;51976;47.332;9.404;2022-09-09T09:50:52;2.65;;;0.63;;
65375;SDS011;51976;47.332;9.404;2022-09-09T09:53:29;1.40;;;0.70;;
65375;SDS011;51976;47.332;9.404;2022-09-09T09:55:59;1.45;;;0.70;;
65375;SDS011;51976;47.332;9.404;2022-09-09T09:58:27;2.67;;;0.50;;
65375;SDS011;51976;47.332;9.404;2022-09-09T10:00:56;2.53;;;0.70;;
65375;SDS011;51976;47.332;9.404;2022-09-09T10:03:24;4.03;;;0.60;;
65375;SDS011;51976;47.332;9.404;2022-09-09T10:05:58;2.17;;;0.47;;
65375;SDS011;51976;47.332;9.404;2022-09-09T10:08:24;4.55;;;0.77;;
65375;SDS011;51976;47.332;9.404;2022-09-09T10:10:53;5.13;;;0.75;;
65375;SDS011;51976;47.332;9.404;2022-09-09T10:13:37;4.97;;;0.80;;
65375;SDS011;51976;47.332;9.404;2022-09-09T10:16:37;4.50;;;0.75;;
65375;SDS011;51976;47.332;9.404;2022-09-09T10:19:16;6.10;;;0.52;;
65375;SDS011;51976;47.332;9.404;2022-09-09T10:22:05;0.85;;;0.40;;
65375;SDS011;51976;47.332;9.404;2022-09-09T10:24:54;1.63;;;0.40;;
65375;SDS011;51976;47.332;9.404;2022-09-09T10:27:51;1.05;;;0.40;;
65375;SDS011;51976;47.332;9.404;2022-09-09T10:30:44;2.40;;;0.28;;
65375;SDS011;51976;47.332;9.404;2022-09-09T10:33:47;2.00;;;0.40;;
65375;SDS011;51976;47.332;9.404;2022-09-09T10:36:34;1.17;;;0.40;;
65375;SDS011;51976;47.332;9.404;2022-09-09T10:39:31;1.27;;;0.40;;
65375;SDS011;51976;47.332;9.404;2022-09-09T10:42:05;1.63;;;0.30;;
65375;SDS011;51976;47.332;9.404;2022-09-09T10:44:48;2.75;;;0.50;;
65375;SDS011;51976;47.332;9.404;2022-09-09T10:47:46;0.52;;;0.30;;
65375;SDS011;51976;47.332;9.404;2022-09-09T10:50:34;1.73;;;0.50;;
65375;SDS011;51976;47.332;9.404;2022-09-09T10:53:15;1.20;;;0.30;;
65375;SDS011;51976;47.332;9.404;2022-09-09T10:56:01;0.50;;;0.20;;
65375;SDS011;51976;47.332;9.404;2022-09-09T10:58:34;0.60;;;0.30;;
65375;SDS011;51976;47.332;9.404;2022-09-09T11:01:15;1.42;;;0.32;;
65375;SDS011;51976;47.332;9.404;2022-09-09T11:03:47;1.33;;;0.28;;
65375;SDS011;51976;47.332;9.404;2022-09-09T11:06:20;3.05;;;0.40;;
65375;SDS011;51976;47.332;9.404;2022-09-09T11:08:48;1.73;;;0.40;;
65375;SDS011;51976;47.332;9.404;2022-09-09T11:11:18;0.93;;;0.32;;
65375;SDS011;51976;47.332;9.404;2022-09-09T11:14:00;3.42;;;0.40;;
65375;SDS011;51976;47.332;9.404;2022-09-09T11:16:49;1.10;;;0.30;;
65375;SDS011;51976;47.332;9.404;2022-09-09T11:19:28;1.13;;;0.35;;
65375;SDS011;51976;47.332;9.404;2022-09-09T11:21:59;4.28;;;0.40;;
65375;SDS011;51976;47.332;9.404;2022-09-09T11:24:50;1.02;;;0.35;;
65375;SDS011;51976;47.332;9.404;2022-09-09T11:27:26;3.33;;;0.45;;
65375;SDS011;51976;47.332;9.404;2022-09-09T11:30:02;1.13;;;0.28;;
65375;SDS011;51976;47.332;9.404;2022-09-09T11:32:51;0.73;;;0.25;;
65375;SDS011;51976;47.332;9.404;2022-09-09T11:35:34;5.70;;;0.47;;
65375;SDS011;51976;47.332;9.404;2022-09-09T11:38:26;4.35;;;0.40;;
65375;SDS011;51976;47.332;9.404;2022-09-09T11:40:56;1.55;;;0.35;;
65375;SDS011;51976;47.332;9.404;2022-09-09T11:43:27;2.85;;;0.80;;
65375;SDS011;51976;47.332;9.404;2022-09-09T11:45:57;1.45;;;0.30;;
65375;SDS011;51976;47.332;9.404;2022-09-09T11:48:32;1.17;;;0.40;;
65375;SDS011;51976;47.332;9.404;2022-09-09T11:51:04;1.05;;;0.30;;
65375;SDS011;51976;47.332;9.404;2022-09-09T11:53:32;1.38;;;0.40;;
65375;SDS011;51976;47.332;9.404;2022-09-09T11:56:22;2.38;;;0.35;;
65375;SDS011;51976;47.332;9.404;2022-09-09T11:58:55;4.00;;;0.45;;
65375;SDS011;51976;47.332;9.404;2022-09-09T12:01:34;1.33;;;0.32;;
65375;SDS011;51976;47.332;9.404;2022-09-09T12:04:05;1.48;;;0.50;;
65375;SDS011;51976;47.332;9.404;2022-09-09T12:06:53;2.30;;;0.30;;
65375;SDS011;51976;47.332;9.404;2022-09-09T12:09:27;2.47;;;0.35;;
65375;SDS011;51976;47.332;9.404;2022-09-09T12:12:05;0.75;;;0.30;;
65375;SDS011;51976;47.332;9.404;2022-09-09T12:14:37;4.82;;;0.47;;
65375;SDS011;51976;47.332;9.404;2022-09-09T12:17:17;3.15;;;0.45;;
65375;SDS011;51976;47.332;9.404;2022-09-09T12:19:44;2.80;;;0.40;;
65375;SDS011;51976;47.332;9.404;2022-09-09T12:22:20;1.45;;;0.38;;
65375;SDS011;51976;47.332;9.404;2022-09-09T12:28:04;2.42;;;0.60;;
65375;SDS011;51976;47.332;9.404;2022-09-09T12:30:43;1.30;;;0.40;;
65375;SDS011;51976;47.332;9.404;2022-09-09T12:33:34;6.38;;;0.50;;
65375;SDS011;51976;47.332;9.404;2022-09-09T12:36:01;1.00;;;0.25;;
65375;SDS011;51976;47.332;9.404;2022-09-09T12:38:32;0.40;;;0.30;;
65375;SDS011;51976;47.332;9.404;2022-09-09T12:41:00;3.22;;;0.40;;
65375;SDS011;51976;47.332;9.404;2022-09-09T12:43:26;1.05;;;0.25;;
65375;SDS011;51976;47.332;9.404;2022-09-09T12:45:57;1.73;;;0.57;;
65375;SDS011;51976;47.332;9.404;2022-09-09T12:48:37;1.40;;;0.50;;
65375;SDS011;51976;47.332;9.404;2022-09-09T12:51:15;1.15;;;0.20;;
65375;SDS011;51976;47.332;9.404;2022-09-09T12:53:44;1.55;;;0.40;;
65375;SDS011;51976;47.332;9.404;2022-09-09T12:56:17;1.85;;;0.40;;
65375;SDS011;51976;47.332;9.404;2022-09-09T12:58:46;1.02;;;0.30;;
65375;SDS011;51976;47.332;9.404;2022-09-09T13:01:24;1.15;;;0.30;;
65375;SDS011;51976;47.332;9.404;2022-09-09T13:03:51;1.05;;;0.40;;
65375;SDS011;51976;47.332;9.404;2022-09-09T13:06:19;1.63;;;0.30;;
65375;SDS011;51976;47.332;9.404;2022-09-09T13:08:48;3.80;;;0.70;;
65375;SDS011;51976;47.332;9.404;2022-09-09T13:11:30;5.03;;;0.47;;
65375;SDS011;51976;47.332;9.404;2022-09-09T13:14:12;1.25;;;0.43;;
65375;SDS011;51976;47.332;9.404;2022-09-09T13:16:53;3.53;;;0.30;;
65375;SDS011;51976;47.332;9.404;2022-09-09T13:19:21;1.48;;;0.30;;
65375;SDS011;51976;47.332;9.404;2022-09-09T13:21:47;1.88;;;0.40;;
65375;SDS011;51976;47.332;9.404;2022-09-09T13:24:22;0.60;;;0.40;;
65375;SDS011;51976;47.332;9.404;2022-09-09T13:26:59;2.17;;;0.30;;
65375;SDS011;51976;47.332;9.404;2022-09-09T13:29:29;2.00;;;0.30;;
65375;SDS011;51976;47.332;9.404;2022-09-09T13:32:05;1.10;;;0.32;;
65375;SDS011;51976;47.332;9.404;2022-09-09T13:34:38;0.50;;;0.30;;
65375;SDS011;51976;47.332;9.404;2022-09-09T13:37:06;1.90;;;0.40;;
65375;SDS011;51976;47.332;9.404;2022-09-09T13:39:50;1.65;;;0.52;;
65375;SDS011;51976;47.332;9.404;2022-09-09T13:42:24;1.27;;;0.35;;
65375;SDS011;51976;47.332;9.404;2022-09-09T13:44:52;1.52;;;0.85;;
65375;SDS011;51976;47.332;9.404;2022-09-09T13:47:30;1.88;;;0.30;;
65375;SDS011;51976;47.332;9.404;2022-09-09T13:49:58;1.38;;;0.32;;
65375;SDS011;51976;47.332;9.404;2022-09-09T13:52:23;2.97;;;0.40;;
65375;SDS011;51976;47.332;9.404;2022-09-09T13:54:52;2.10;;;0.45;;
65375;SDS011;51976;47.332;9.404;2022-09-09T13:57:19;6.13;;;0.50;;
65375;SDS011;51976;47.332;9.404;2022-09-09T13:59:47;3.63;;;1.25;;
65375;SDS011;51976;47.332;9.404;2022-09-09T14:02:14;2.20;;;0.70;;
65375;SDS011;51976;47.332;9.404;2022-09-09T14:04:41;5.25;;;0.55;;
65375;SDS011;51976;47.332;9.404;2022-09-09T14:07:09;3.45;;;0.70;;
65375;SDS011;51976;47.332;9.404;2022-09-09T14:09:37;6.88;;;0.80;;
65375;SDS011;51976;47.332;9.404;2022-09-09T14:12:04;4.28;;;0.80;;
65375;SDS011;51976;47.332;9.404;2022-09-09T14:14:30;9.90;;;0.90;;
65375;SDS011;51976;47.332;9.404;2022-09-09T14:16:55;5.57;;;0.50;;
65375;SDS011;51976;47.332;9.404;2022-09-09T14:19:20;13.00;;;2.10;;
65375;SDS011;51976;47.332;9.404;2022-09-09T14:21:46;5.82;;;1.17;;
65375;SDS011;51976;47.332;9.404;2022-09-09T14:24:11;4.22;;;1.10;;
65375;SDS011;51976;47.332;9.404;2022-09-09T14:26:37;8.50;;;1.25;;
65375;SDS011;51976;47.332;9.404;2022-09-09T14:29:03;11.57;;;1.55;;
65375;SDS011;51976;47.332;9.404;2022-09-09T14:31:28;6.93;;;1.00;;
65375;SDS011;51976;47.332;9.404;2022-09-09T14:33:54;8.35;;;1.20;;
65375;SDS011;51976;47.332;9.404;2022-09-09T14:36:19;4.88;;;1.60;;
65375;SDS011;51976;47.332;9.404;2022-09-09T14:38:45;13.63;;;1.13;;
65375;SDS011;51976;47.332;9.404;2022-09-09T14:41:15;4.07;;;0.73;;
65375;SDS011;51976;47.332;9.404;2022-09-09T14:43:42;8.35;;;1.10;;
65375;SDS011;51976;47.332;9.404;2022-09-09T14:46:08;6.45;;;1.05;;
65375;SDS011;51976;47.332;9.404;2022-09-09T14:48:38;9.15;;;1.10;;
65375;SDS011;51976;47.332;9.404;2022-09-09T14:51:06;10.52;;;0.95;;
65375;SDS011;51976;47.332;9.404;2022-09-09T14:53:37;5.53;;;0.90;;
65375;SDS011;51976;47.332;9.404;2022-09-09T14:56:05;6.47;;;0.90;;
65375;SDS011;51976;47.332;9.404;2022-09-09T14:58:36;3.00;;;0.70;;
65375;SDS011;51976;47.332;9.404;2022-09-09T15:01:04;4.18;;;0.77;;
65375;SDS011;51976;47.332;9.404;2022-09-09T15:03:35;6.13;;;0.73;;
65375;SDS011;51976;47.332;9.404;2022-09-09T15:06:05;5.45;;;1.20;;
65375;SDS011;51976;47.332;9.404;2022-09-09T15:08:33;4.20;;;0.90;;
65375;SDS011;51976;47.332;9.404;2022-09-09T15:11:03;5.53;;;1.17;;
65375;SDS011;51976;47.332;9.404;2022-09-09T15:13:29;7.78;;;1.50;;
65375;SDS011;51976;47.332;9.404;2022-09-09T15:15:55;6.15;;;1.00;;
65375;SDS011;51976;47.332;9.404;2022-09-09T15:18:23;7.55;;;1.55;;
65375;SDS011;51976;47.332;9.404;2022-09-09T15:20:48;5.30;;;1.50;;
65375;SDS011;51976;47.332;9.404;2022-09-09T15:23:14;7.90;;;1.52;;
65375;SDS011;51976;47.332;9.404;2022-09-09T15:25:53;6.35;;;1.40;;
65375;SDS011;51976;47.332;9.404;2022-09-09T15:28:20;10.75;;;1.70;;
65375;SDS011;51976;47.332;9.404;2022-09-09T15:30:49;5.82;;;1.70;;
65375;SDS011;51976;47.332;9.404;2022-09-09T15:33:17;9.90;;;1.58;;